Time;durP1;ratioP1;P1;durP2;ratioP2;P2;SDS_P1;SDS_P2;PMS_P1;PMS_P2;Temp;Humidity;BMP_temperature;BMP_pressure;BME280_temperature;BME280_humidity;BME280_pressure;Samples;Min_cycle;Max_cycle;Signal;HPM_P1;HPM_P2
2021/09/14 00:00:37;;;;;;;8.18;4.68;;;;;;;14.40;100.00;93837.25;5114789;28;20197;-80
2021/09/14 00:03:06;;;;;;;6.65;4.35;;;;;;;14.51;100.00;93842.78;5114521;28;20655;-80
2021/09/14 00:05:34;;;;;;;7.70;5.03;;;;;;;14.55;100.00;93849.97;5114608;28;20202;-80
2021/09/14 00:08:01;;;;;;;10.07;4.03;;;;;;;14.41;100.00;93833.59;5114443;28;20229;-80
2021/09/14 00:10:33;;;;;;;7.97;4.68;;;;;;;14.36;100.00;93841.34;5114467;28;20202;-80
2021/09/14 00:12:59;;;;;;;6.45;4.32;;;;;;;14.31;100.00;93835.97;5114366;28;20703;-80
2021/09/14 00:15:26;;;;;;;7.13;4.63;;;;;;;14.33;100.00;93831.28;5114360;28;20197;-80
2021/09/14 00:17:53;;;;;;;6.03;4.03;;;;;;;14.25;100.00;93835.03;5114234;28;20194;-80
2021/09/14 00:20:31;;;;;;;7.18;4.70;;;;;;;14.28;100.00;93839.03;5114277;28;20284;-79
2021/09/14 00:23:03;;;;;;;6.25;4.45;;;;;;;14.53;100.00;93833.63;5113954;28;20207;-80
2021/09/14 00:25:35;;;;;;;6.78;4.38;;;;;;;14.53;100.00;93824.97;5114208;28;20233;-79
2021/09/14 00:28:06;;;;;;;10.13;4.60;;;;;;;14.58;100.00;93822.47;5114157;28;20225;-80
2021/09/14 00:30:32;;;;;;;7.03;4.03;;;;;;;14.55;100.00;93817.66;5113994;28;20197;-79
2021/09/14 00:33:06;;;;;;;7.97;4.70;;;;;;;14.46;100.00;93816.38;5114069;28;20209;-79
2021/09/14 00:35:41;;;;;;;7.32;4.38;;;;;;;14.49;100.00;93827.25;5113961;28;20716;-80
2021/09/14 00:38:08;;;;;;;8.20;4.40;;;;;;;14.33;100.00;93820.78;5113801;28;20551;-80
2021/09/14 00:40:49;;;;;;;8.10;4.60;;;;;;;14.31;100.00;93822.81;5114033;28;20296;-79
2021/09/14 00:43:24;;;;;;;10.82;4.53;;;;;;;14.36;100.00;93820.34;5113955;28;20201;-80
2021/09/14 00:45:54;;;;;;;7.00;4.53;;;;;;;14.45;100.00;93810.31;5113897;28;20223;-79
2021/09/14 00:48:24;;;;;;;7.32;4.28;;;;;;;14.44;100.00;93806.88;5113723;28;20221;-79
2021/09/14 00:51:14;;;;;;;5.72;4.25;;;;;;;14.57;100.00;93810.34;5112863;28;20240;-80
2021/09/14 00:53:48;;;;;;;6.68;4.18;;;;;;;14.63;100.00;93798.19;5113726;28;20202;-80
2021/09/14 00:56:19;;;;;;;6.70;4.18;;;;;;;14.56;100.00;93798.25;5113658;28;20194;-80
2021/09/14 00:58:48;;;;;;;7.25;4.20;;;;;;;14.35;100.00;93792.47;5113875;28;20219;-79
2021/09/14 01:01:15;;;;;;;7.80;4.28;;;;;;;14.16;100.00;93798.78;5113572;28;20612;-80
2021/09/14 01:03:45;;;;;;;10.40;4.90;;;;;;;14.27;100.00;93795.38;5113525;28;20205;-80
2021/09/14 01:06:18;;;;;;;6.10;4.18;;;;;;;14.39;100.00;93796.25;5113672;28;20213;-80
2021/09/14 01:08:53;;;;;;;8.02;4.70;;;;;;;14.30;100.00;93799.41;5113357;28;20233;-80
2021/09/14 01:11:21;;;;;;;6.95;4.43;;;;;;;14.52;100.00;93799.72;5113563;28;20711;-80
2021/09/14 01:13:59;;;;;;;6.03;4.35;;;;;;;14.46;100.00;93798.00;5113606;28;20197;-80
2021/09/14 01:16:36;;;;;;;6.65;4.72;;;;;;;14.54;100.00;93801.09;5113616;28;20197;-80
2021/09/14 01:19:04;;;;;;;10.38;4.15;;;;;;;14.52;100.00;93789.19;5113371;28;20201;-80
2021/09/14 01:21:34;;;;;;;8.07;4.55;;;;;;;14.73;100.00;93793.97;5113205;28;20644;-79
2021/09/14 01:24:15;;;;;;;7.88;4.30;;;;;;;14.75;100.00;93796.38;5112692;28;20435;-80
2021/09/14 01:26:44;;;;;;;10.55;4.03;;;;;;;14.78;100.00;93791.47;5113142;28;20229;-79
2021/09/14 01:30:11;;;;;;;8.68;4.03;;;;;;;14.58;100.00;93790.94;5113375;28;20282;-80
2021/09/14 01:32:15;;;;;;;8.35;3.95;;;;;;;14.57;100.00;93791.94;5113137;28;20288;-80
2021/09/14 01:34:42;;;;;;;7.57;4.35;;;;;;;14.55;100.00;93792.19;5113331;28;20217;-80
2021/09/14 01:37:10;;;;;;;8.38;3.78;;;;;;;14.51;100.00;93791.03;5113275;28;20250;-79
2021/09/14 01:39:42;;;;;;;6.43;3.72;;;;;;;14.42;100.00;93787.09;5112984;28;20204;-79
2021/09/14 01:42:11;;;;;;;11.52;4.32;;;;;;;14.37;100.00;93789.59;5113090;28;20682;-80
2021/09/14 01:44:39;;;;;;;8.25;3.92;;;;;;;14.24;100.00;93798.50;5113222;28;20194;-80
2021/09/14 01:47:17;;;;;;;7.10;4.30;;;;;;;14.36;100.00;93791.44;5112701;28;20212;-80
2021/09/14 01:49:53;;;;;;;8.63;4.20;;;;;;;14.43;100.00;93789.50;5092795;28;20206;-80
2021/09/14 01:52:26;;;;;;;9.90;4.22;;;;;;;14.32;100.00;93795.56;5092858;28;20206;-80
2021/09/14 01:54:57;;;;;;;6.47;4.07;;;;;;;14.31;100.00;93796.56;5092724;28;20297;-80
2021/09/14 01:57:29;;;;;;;6.88;4.13;;;;;;;14.25;100.00;93797.44;5092922;28;20202;-80
2021/09/14 02:00:02;;;;;;;7.03;4.20;;;;;;;14.23;100.00;93800.28;5092688;28;20537;-80
2021/09/14 02:02:42;;;;;;;6.30;4.35;;;;;;;14.34;100.00;93795.31;5092828;28;20194;-80
2021/09/14 02:05:12;;;;;;;6.75;3.95;;;;;;;14.36;100.00;93794.06;5096137;28;20206;-80
2021/09/14 02:33:47;;;;;;;5.00;3.75;;;;;;;14.22;100.00;93800.50;5095975;28;20213;-80
2021/09/14 02:39:04;;;;;;;8.05;3.50;;;;;;;14.45;100.00;93791.91;5095900;28;20296;-80
2021/09/14 02:58:42;;;;;;;6.90;3.53;;;;;;;14.27;100.00;93784.88;5095529;28;20201;-81
2021/09/14 03:01:16;;;;;;;4.97;3.75;;;;;;;14.24;100.00;93783.53;5095555;28;20202;-81
2021/09/14 03:03:54;;;;;;;6.18;3.60;;;;;;;14.13;100.00;93786.91;5095398;28;20212;-80
2021/09/14 03:06:26;;;;;;;5.93;3.80;;;;;;;14.30;100.00;93776.56;5095741;28;20212;-80
2021/09/14 03:09:00;;;;;;;5.30;3.40;;;;;;;14.38;100.00;93775.47;5095281;28;20233;-80
2021/09/14 03:11:27;;;;;;;6.15;3.72;;;;;;;14.30;100.00;93787.06;5095059;28;20209;-80
2021/09/14 03:13:58;;;;;;;7.05;4.07;;;;;;;14.21;100.00;93783.16;5094883;28;20201;-81
2021/09/14 03:16:33;;;;;;;7.28;3.67;;;;;;;14.19;100.00;93779.97;5095411;28;20202;-80
2021/09/14 03:19:04;;;;;;;5.18;3.50;;;;;;;14.18;100.00;93775.75;5112373;28;20199;-80
2021/09/14 03:21:38;;;;;;;5.15;3.60;;;;;;;14.18;100.00;93783.63;5115670;28;20193;-80
2021/09/14 03:24:05;;;;;;;6.75;3.58;;;;;;;14.18;100.00;93780.97;5115337;28;20616;-80
2021/09/14 03:26:32;;;;;;;6.35;3.42;;;;;;;14.24;100.00;93780.09;5115098;28;20312;-79
2021/09/14 03:29:06;;;;;;;7.03;3.97;;;;;;;14.32;100.00;93782.41;5114411;28;20233;-80
2021/09/14 03:31:36;;;;;;;7.80;3.60;;;;;;;14.16;100.00;93775.94;5115243;28;20197;-79
2021/09/14 03:34:06;;;;;;;5.85;3.25;;;;;;;13.98;100.00;93776.00;5115309;28;20262;-80
2021/09/14 03:36:33;;;;;;;5.70;3.40;;;;;;;13.93;100.00;93783.72;5115238;28;20197;-79
2021/09/14 03:39:01;;;;;;;8.70;4.10;;;;;;;13.79;100.00;93777.81;5115114;28;20555;-80
2021/09/14 03:41:27;;;;;;;6.85;3.35;;;;;;;13.67;100.00;93785.63;5115274;28;20209;-80
2021/09/14 03:43:54;;;;;;;10.68;3.53;;;;;;;13.78;100.00;93781.47;5114933;28;20268;-79
2021/09/14 03:46:26;;;;;;;10.93;3.65;;;;;;;13.64;100.00;93779.00;5115118;28;20204;-80
2021/09/14 03:49:00;;;;;;;8.20;4.05;;;;;;;13.55;100.00;93777.69;5115008;28;20257;-80
2021/09/14 03:51:34;;;;;;;8.57;4.07;;;;;;;13.65;100.00;93783.22;5114112;28;20205;-80
2021/09/14 03:54:03;;;;;;;5.37;4.03;;;;;;;13.79;100.00;93769.94;5114750;28;20651;-79
2021/09/14 03:56:42;;;;;;;6.90;4.25;;;;;;;13.76;100.00;93779.06;5114893;28;20197;-80
2021/09/14 03:59:11;;;;;;;6.15;4.00;;;;;;;13.74;100.00;93770.63;5113858;28;20220;-80
2021/09/14 04:01:40;;;;;;;5.47;3.83;;;;;;;13.83;100.00;93768.50;5114579;28;20292;-79
2021/09/14 04:04:18;;;;;;;6.13;3.70;;;;;;;13.67;100.00;93765.47;5114728;28;20555;-80
2021/09/14 04:07:10;;;;;;;6.43;3.03;;;;;;;13.71;100.00;93762.41;5114789;28;20621;-80
2021/09/14 04:09:39;;;;;;;6.20;4.10;;;;;;;13.80;100.00;93761.06;5114336;28;20698;-80
2021/09/14 04:12:10;;;;;;;8.70;3.40;;;;;;;13.75;100.00;93756.47;5114428;28;20212;-80
2021/09/14 04:14:39;;;;;;;5.47;3.55;;;;;;;13.64;100.00;93762.47;5114556;28;20204;-80
2021/09/14 04:17:06;;;;;;;5.97;3.70;;;;;;;13.75;100.00;93766.97;5114390;28;20201;-80
2021/09/14 04:19:35;;;;;;;7.57;3.80;;;;;;;13.79;100.00;93762.06;5114259;28;20677;-79
2021/09/14 04:22:03;;;;;;;6.45;4.20;;;;;;;13.74;100.00;93760.13;5114311;28;20208;-80
2021/09/14 04:24:34;;;;;;;6.65;4.18;;;;;;;13.76;100.00;93767.78;5113705;28;20430;-80
2021/09/14 04:27:04;;;;;;;5.57;3.58;;;;;;;13.69;100.00;93763.41;5113530;28;20316;-80
2021/09/14 04:29:30;;;;;;;8.25;4.55;;;;;;;13.73;100.00;93760.34;5114167;27;20233;-80
2021/09/14 04:31:59;;;;;;;6.15;3.53;;;;;;;13.67;100.00;93765.47;5114183;28;20201;-81
2021/09/14 04:34:27;;;;;;;7.65;3.88;;;;;;;13.62;100.00;93757.44;5113951;28;20571;-80
2021/09/14 04:37:05;;;;;;;7.47;3.83;;;;;;;13.66;100.00;93763.06;5114044;28;20311;-80
2021/09/14 04:39:53;;;;;;;8.00;4.40;;;;;;;13.73;100.00;93766.38;5113869;28;20205;-80
2021/09/14 04:42:22;;;;;;;5.30;3.65;;;;;;;13.71;100.00;93772.91;5113694;28;20198;-79
2021/09/14 04:44:49;;;;;;;7.07;4.28;;;;;;;13.70;100.00;93761.56;5113750;28;20205;-82
2021/09/14 04:47:15;;;;;;;7.47;4.20;;;;;;;13.73;100.00;93769.00;5113789;28;20563;-80
2021/09/14 04:49:44;;;;;;;5.95;4.40;;;;;;;13.60;100.00;93772.59;5113588;28;20316;-80
2021/09/14 04:52:16;;;;;;;8.05;4.25;;;;;;;13.70;100.00;93769.44;5113740;28;20229;-79
2021/09/14 04:54:48;;;;;;;8.38;4.18;;;;;;;13.78;100.00;93776.22;5114083;28;20201;-80
2021/09/14 04:57:14;;;;;;;8.35;4.07;;;;;;;13.61;100.00;93776.81;5113814;28;20197;-80
2021/09/14 04:59:41;;;;;;;7.60;4.57;;;;;;;13.62;100.00;93777.63;5113740;28;20212;-80
2021/09/14 05:02:12;;;;;;;5.25;4.03;;;;;;;13.59;100.00;93771.00;5113553;28;20199;-80
2021/09/14 05:04:39;;;;;;;8.48;4.55;;;;;;;13.57;100.00;93774.84;5113601;28;20555;-80
2021/09/14 05:07:06;;;;;;;9.18;5.13;;;;;;;13.57;100.00;93770.38;5113762;28;20202;-80
2021/09/14 05:09:35;;;;;;;7.47;5.30;;;;;;;13.46;100.00;93779.00;5112542;28;20454;-80
2021/09/14 05:12:10;;;;;;;8.75;5.28;;;;;;;13.45;100.00;93772.16;5113575;28;20197;-80
2021/09/14 05:14:38;;;;;;;6.63;4.10;;;;;;;13.37;100.00;93780.31;5113428;28;20236;-80
2021/09/14 05:17:18;;;;;;;11.73;5.35;;;;;;;13.39;100.00;93773.00;5113305;28;20667;-80
2021/09/14 05:19:46;;;;;;;9.10;5.00;;;;;;;13.40;100.00;93783.28;5113501;28;20200;-79
2021/09/14 05:22:15;;;;;;;9.68;5.68;;;;;;;13.51;100.00;93776.53;5113466;28;20246;-80
2021/09/14 05:24:45;;;;;;;8.60;5.70;;;;;;;13.54;100.00;93776.09;5113536;28;20259;-80
2021/09/14 05:27:13;;;;;;;8.30;5.22;;;;;;;13.61;100.00;93768.94;5113202;28;20229;-80
2021/09/14 05:29:39;;;;;;;11.70;5.22;;;;;;;13.71;100.00;93771.06;5113404;28;20253;-79
2021/09/14 05:32:17;;;;;;;7.95;5.00;;;;;;;13.80;100.00;93774.19;5113515;28;20205;-79
2021/09/14 05:34:46;;;;;;;7.88;5.00;;;;;;;13.91;100.00;93773.44;5113118;28;20205;-80
2021/09/14 05:37:34;;;;;;;11.10;5.43;;;;;;;13.91;100.00;93772.66;5113225;28;20201;-80
2021/09/14 05:40:04;;;;;;;10.85;5.43;;;;;;;13.87;100.00;93769.66;5117378;28;20559;-80
2021/09/14 05:42:33;;;;;;;12.85;4.93;;;;;;;13.83;100.00;93771.13;5117364;28;20674;-80
2021/09/14 05:45:04;;;;;;;9.35;5.15;;;;;;;13.92;100.00;93776.88;5117358;28;20208;-80
2021/09/14 05:47:34;;;;;;;8.52;5.38;;;;;;;14.00;100.00;93779.97;5117461;28;20221;-80
2021/09/14 05:50:01;;;;;;;9.45;5.55;;;;;;;14.01;100.00;93778.19;5116996;28;20622;-79
2021/09/14 05:52:30;;;;;;;7.32;4.85;;;;;;;14.02;100.00;93779.75;5117185;28;20559;-79
2021/09/14 05:55:09;;;;;;;10.68;5.82;;;;;;;14.05;100.00;93776.69;5116634;28;20966;-79
2021/09/14 05:57:35;;;;;;;8.38;5.50;;;;;;;14.20;100.00;93779.72;5117058;28;20233;-80
2021/09/14 06:00:08;;;;;;;7.68;5.38;;;;;;;14.41;100.00;93790.78;5116992;28;20204;-80
2021/09/14 06:02:37;;;;;;;7.68;5.35;;;;;;;14.44;100.00;93785.09;5116973;28;20197;-80
2021/09/14 06:05:04;;;;;;;8.45;4.93;;;;;;;14.53;100.00;93778.47;5116701;28;20198;-80
2021/09/14 06:07:33;;;;;;;8.07;4.80;;;;;;;14.68;100.00;93783.34;5117049;28;20564;-80
2021/09/14 06:10:04;;;;;;;10.40;5.50;;;;;;;14.70;100.00;93786.53;5116886;28;20232;-80
2021/09/14 06:12:31;;;;;;;7.57;4.93;;;;;;;14.72;100.00;93781.88;5116839;28;20206;-80
2021/09/14 06:15:04;;;;;;;9.10;5.20;;;;;;;14.80;100.00;93783.34;5116418;28;20284;-79
2021/09/14 06:17:33;;;;;;;9.57;5.30;;;;;;;14.91;100.00;93782.56;5116878;28;20217;-80
2021/09/14 06:20:03;;;;;;;7.97;4.68;;;;;;;14.98;100.00;93779.84;5116622;28;20660;-80
2021/09/14 06:22:32;;;;;;;9.18;4.85;;;;;;;15.07;100.00;93786.38;5116754;28;20200;-80
2021/09/14 06:24:59;;;;;;;9.05;4.55;;;;;;;15.13;100.00;93792.53;5116467;28;20220;-80
2021/09/14 06:27:33;;;;;;;8.52;4.75;;;;;;;15.23;100.00;93786.72;5116367;28;20200;-80
2021/09/14 06:30:00;;;;;;;6.60;4.60;;;;;;;15.30;100.00;93797.91;5116650;28;20220;-79
2021/09/14 06:32:28;;;;;;;8.82;5.15;;;;;;;15.45;100.00;93794.81;5116642;28;20198;-79
2021/09/14 06:34:58;;;;;;;8.27;5.05;;;;;;;15.56;100.00;93790.59;5116503;28;20201;-79
2021/09/14 06:37:27;;;;;;;16.00;4.80;;;;;;;15.65;100.00;93797.09;5116096;27;20221;-79
2021/09/14 06:39:59;;;;;;;11.65;5.20;;;;;;;15.76;100.00;93801.56;5115981;27;20652;-79
2021/09/14 06:42:29;;;;;;;8.55;4.78;;;;;;;15.84;100.00;93808.31;5116259;28;20201;-79
2021/09/14 06:44:58;;;;;;;9.63;4.28;;;;;;;15.98;100.00;93799.13;5116241;28;20727;-80
2021/09/14 06:47:30;;;;;;;10.40;4.13;;;;;;;16.07;100.00;93802.19;5116246;28;20554;-80
2021/09/14 06:50:05;;;;;;;7.45;4.20;;;;;;;16.14;100.00;93804.69;5115437;28;20258;-80
2021/09/14 06:52:40;;;;;;;6.10;3.90;;;;;;;16.23;100.00;93798.81;5115990;28;20197;-80
2021/09/14 06:55:13;;;;;;;7.35;4.05;;;;;;;16.36;100.00;93804.84;5116257;28;20197;-79
2021/09/14 06:57:46;;;;;;;6.88;4.15;;;;;;;16.53;100.00;93804.88;5116141;28;20209;-79
2021/09/14 07:00:16;;;;;;;7.35;4.43;;;;;;;16.75;100.00;93802.38;5116040;28;20205;-80
2021/09/14 07:02:45;;;;;;;5.32;3.80;;;;;;;16.92;100.00;93800.59;5115936;28;20205;-79
2021/09/14 07:05:15;;;;;;;6.18;4.53;;;;;;;17.04;100.00;93805.78;5115777;27;20223;-79
2021/09/14 07:07:46;;;;;;;8.43;4.05;;;;;;;17.23;100.00;93808.97;5115998;28;20201;-79
2021/09/14 07:10:20;;;;;;;7.78;3.88;;;;;;;17.44;100.00;93806.66;5115577;28;20229;-79
2021/09/14 07:12:49;;;;;;;6.57;4.15;;;;;;;17.59;100.00;93806.88;5115852;28;20209;-79
2021/09/14 07:15:19;;;;;;;7.88;3.97;;;;;;;17.74;100.00;93814.97;5115579;27;20201;-78
2021/09/14 07:17:46;;;;;;;7.30;4.13;;;;;;;17.98;100.00;93806.06;5115506;28;20225;-79
2021/09/14 07:20:17;;;;;;;5.78;3.50;;;;;;;18.18;100.00;93813.44;5115605;28;20198;-79
2021/09/14 07:22:52;;;;;;;6.40;4.03;;;;;;;18.23;100.00;93811.66;5115284;28;20202;-79
2021/09/14 07:25:21;;;;;;;4.97;3.97;;;;;;;18.52;100.00;93810.63;5114637;28;20427;-79
2021/09/14 07:27:49;;;;;;;5.60;3.53;;;;;;;18.57;100.00;93813.31;5115379;28;20282;-79
2021/09/14 07:30:32;;;;;;;6.85;4.30;;;;;;;18.79;100.00;93808.78;5115051;28;20237;-79
2021/09/14 07:33:01;;;;;;;7.07;4.20;;;;;;;18.97;100.00;93809.53;5115202;28;20655;-79
2021/09/14 07:35:29;;;;;;;9.65;3.40;;;;;;;19.12;100.00;93814.13;5115121;28;20292;-79
2021/09/14 07:38:04;;;;;;;5.35;3.92;;;;;;;19.31;100.00;93809.25;5115250;28;20201;-80
2021/09/14 07:40:33;;;;;;;6.50;3.50;;;;;;;19.35;100.00;93813.78;5115102;28;20295;-78
2021/09/14 07:43:21;;;;;;;6.53;3.88;;;;;;;19.52;100.00;93815.50;5114973;28;20204;-79
2021/09/14 07:45:55;;;;;;;4.88;3.35;;;;;;;19.77;100.00;93818.31;5115133;28;20204;-79
2021/09/14 07:48:31;;;;;;;5.30;3.28;;;;;;;19.98;100.00;93817.63;5115058;28;20288;-78
2021/09/14 07:50:57;;;;;;;4.72;3.42;;;;;;;20.24;100.00;93811.38;5114602;28;20256;-79
2021/09/14 07:53:24;;;;;;;5.68;3.58;;;;;;;20.55;100.00;93811.50;5115066;28;20204;-79
2021/09/14 07:55:55;;;;;;;6.00;3.05;;;;;;;20.78;100.00;93814.72;5114877;28;20201;-79
2021/09/14 07:58:32;;;;;;;4.65;3.33;;;;;;;20.95;100.00;93812.66;5114441;28;20225;-78
2021/09/14 08:01:08;;;;;;;8.20;3.35;;;;;;;21.03;100.00;93809.47;5112426;28;20583;-78
2021/09/14 08:03:41;;;;;;;5.43;3.45;;;;;;;21.22;100.00;93809.72;5114584;28;20203;-78
2021/09/14 08:06:14;;;;;;;5.65;2.72;;;;;;;21.33;97.95;93815.81;5114586;28;20728;-80
2021/09/14 08:08:47;;;;;;;10.27;3.08;;;;;;;21.33;94.73;93815.03;5108934;28;20201;-76
2021/09/14 08:11:22;;;;;;;4.25;3.00;;;;;;;21.44;94.84;93813.97;5113365;28;20932;-78
2021/09/14 08:13:54;;;;;;;6.18;3.08;;;;;;;21.60;93.99;93810.28;5113940;27;20204;-79
2021/09/14 08:16:23;;;;;;;6.00;3.20;;;;;;;21.81;94.48;93811.00;5114195;28;20201;-79
2021/09/14 08:18:51;;;;;;;4.38;2.97;;;;;;;21.99;95.26;93817.59;5114257;28;20197;-79
2021/09/14 08:21:30;;;;;;;;;;;;;;;;;;;;;
2021/09/14 08:24:10;;;;;;;5.30;3.03;;;;;;;22.05;99.80;93806.94;5113133;28;20208;-80
2021/09/14 08:26:44;;;;;;;4.55;2.70;;;;;;;22.19;88.64;93813.28;5113924;28;20279;-79
2021/09/14 08:29:17;;;;;;;4.78;3.30;;;;;;;22.26;93.31;93808.47;5114326;28;20292;-79
2021/09/14 08:31:45;;;;;;;4.88;2.60;;;;;;;22.24;85.11;93812.50;5113961;28;20678;-79
2021/09/14 08:34:20;;;;;;;5.00;2.53;;;;;;;22.26;89.80;93815.66;5113932;28;20197;-78
2021/09/14 08:36:47;;;;;;;10.05;3.17;;;;;;;22.28;81.48;93813.53;5113964;28;20201;-79
2021/09/14 08:39:16;;;;;;;6.63;2.45;;;;;;;22.47;85.06;93814.53;5114157;28;20555;-79
2021/09/14 08:41:46;;;;;;;5.40;2.78;;;;;;;22.64;83.10;93813.41;5113859;28;20690;-79
2021/09/14 08:44:18;;;;;;;5.47;3.25;;;;;;;22.67;82.68;93815.50;5113962;28;20197;-78
2021/09/14 08:46:48;;;;;;;4.40;2.92;;;;;;;22.69;87.41;93818.69;5113975;28;20209;-79
2021/09/14 08:49:18;;;;;;;4.65;2.88;;;;;;;22.67;82.79;93818.16;5113573;28;20288;-79
2021/09/14 08:51:45;;;;;;;5.40;3.00;;;;;;;22.68;81.47;93817.09;5113724;28;20671;-79
2021/09/14 08:54:16;;;;;;;5.25;2.88;;;;;;;22.73;79.70;93817.88;5113893;28;20300;-78
2021/09/14 08:56:46;;;;;;;4.07;2.80;;;;;;;22.85;91.64;93816.75;5113771;28;20198;-79
2021/09/14 08:59:38;;;;;;;5.60;2.83;;;;;;;23.02;84.69;93819.03;5113770;28;20209;-79
2021/09/14 09:02:09;;;;;;;7.38;3.25;;;;;;;23.04;78.81;93817.66;5113918;28;20209;-79
2021/09/14 09:04:39;;;;;;;2.97;2.30;;;;;;;22.99;84.58;93822.22;5113585;28;20224;-79
2021/09/14 09:07:06;;;;;;;5.70;2.78;;;;;;;22.86;83.82;93829.75;5113735;28;20197;-78
2021/09/14 09:09:33;;;;;;;5.00;2.30;;;;;;;23.06;80.11;93823.53;5113318;28;20225;-78
2021/09/14 09:12:02;;;;;;;5.90;2.90;;;;;;;23.21;80.71;93829.81;5113442;28;20198;-78
2021/09/14 09:14:42;;;;;;;5.78;2.88;;;;;;;23.52;77.67;93830.38;5113200;28;20735;-78
2021/09/14 09:17:13;;;;;;;6.95;3.15;;;;;;;23.42;84.10;93827.81;5113253;28;20651;-79
2021/09/14 09:19:55;;;;;;;5.78;2.78;;;;;;;23.34;78.51;93825.75;5113447;28;20626;-79
2021/09/14 09:22:32;;;;;;;4.72;2.80;;;;;;;23.35;87.90;93827.31;5113379;28;20663;-78
2021/09/14 09:25:02;;;;;;;5.97;2.75;;;;;;;23.53;78.19;93831.97;5113035;28;20651;-79
2021/09/14 09:27:31;;;;;;;3.67;2.55;;;;;;;23.55;76.26;93823.69;5113378;28;20201;-77
2021/09/14 09:30:11;;;;;;;3.95;2.47;;;;;;;23.51;75.30;93826.09;5113090;28;20316;-78
2021/09/14 09:32:50;;;;;;;4.70;2.78;;;;;;;23.19;82.02;93822.09;5113418;28;20205;-79
2021/09/14 09:35:31;;;;;;;6.78;2.88;;;;;;;23.24;75.43;93824.72;5113120;28;20622;-79
2021/09/14 09:37:59;;;;;;;4.18;2.50;;;;;;;23.08;75.98;93828.56;5113223;28;20208;-77
2021/09/14 09:40:31;;;;;;;6.90;2.65;;;;;;;22.92;73.59;93826.00;5113287;28;20606;-77
2021/09/14 09:43:05;;;;;;;4.75;2.33;;;;;;;22.93;73.16;93834.75;5113194;28;20686;-78
2021/09/14 09:45:38;;;;;;;6.05;2.80;;;;;;;23.13;77.16;93825.88;5112996;28;20206;-78
2021/09/14 09:48:05;;;;;;;11.75;3.33;;;;;;;23.28;77.24;93820.44;5113288;28;20208;-79
2021/09/14 09:50:31;;;;;;;2.70;2.30;;;;;;;23.61;73.96;93826.00;5113142;28;20227;-79
2021/09/14 09:53:11;;;;;;;8.15;2.70;;;;;;;23.72;74.05;93828.59;5113012;28;20659;-79
2021/09/14 09:55:40;;;;;;;5.32;2.50;;;;;;;23.74;74.90;93824.56;5113163;28;20212;-78
2021/09/14 09:58:07;;;;;;;4.97;2.50;;;;;;;23.97;78.53;93823.03;5112351;28;20201;-79
2021/09/14 10:00:43;;;;;;;5.10;2.53;;;;;;;24.04;69.24;93825.38;5112950;28;20656;-79
2021/09/14 10:03:17;;;;;;;8.80;2.78;;;;;;;23.99;71.64;93820.88;5113227;28;20223;-78
2021/09/14 10:05:50;;;;;;;4.75;2.80;;;;;;;24.18;70.83;93823.63;5113285;28;20197;-78
2021/09/14 10:08:28;;;;;;;4.28;2.50;;;;;;;24.17;74.32;93823.91;5113177;28;20211;-79
2021/09/14 10:10:56;;;;;;;6.22;2.67;;;;;;;24.35;72.79;93820.47;5113104;28;20229;-80
2021/09/14 10:13:40;;;;;;;3.80;2.60;;;;;;;24.39;72.40;93816.16;5113039;28;20194;-79
2021/09/14 10:16:11;;;;;;;3.55;2.25;;;;;;;24.37;68.20;93822.88;5112621;28;20202;-78
2021/09/14 10:18:41;;;;;;;4.28;2.33;;;;;;;24.31;69.43;93813.31;5112884;28;20232;-78
2021/09/14 10:21:20;;;;;;;3.97;2.30;;;;;;;24.48;68.20;93823.53;5112779;28;20216;-78
2021/09/14 10:26:38;;;;;;;3.47;2.42;;;;;;;24.25;64.88;93814.47;5112885;28;20231;-77
2021/09/14 10:29:13;;;;;;;3.60;2.38;;;;;;;24.49;65.24;93814.44;5116608;28;20578;-76
2021/09/14 10:31:51;;;;;;;5.30;2.58;;;;;;;24.27;64.50;93813.09;5116423;28;20228;-76
2021/09/14 10:34:22;;;;;;;5.47;2.35;;;;;;;24.00;67.69;93819.81;5116780;28;20205;-78
2021/09/14 10:37:03;;;;;;;5.10;2.47;;;;;;;24.19;71.87;93814.53;5116263;28;20201;-78
2021/09/14 10:39:35;;;;;;;2.53;1.98;;;;;;;24.65;67.54;93812.41;5116394;28;20201;-77
2021/09/14 10:42:34;;;;;;;4.32;2.10;;;;;;;24.60;66.95;93809.78;5116530;28;20190;-78
2021/09/14 10:45:10;;;;;;;3.72;2.30;;;;;;;24.39;63.66;93810.03;5109771;28;20928;-78
2021/09/14 10:47:39;;;;;;;3.17;2.20;;;;;;;24.74;65.16;93822.13;5116370;28;20197;-78
2021/09/14 10:50:10;;;;;;;6.07;2.40;;;;;;;24.63;64.60;93814.56;5115967;28;20260;-77
2021/09/14 10:52:39;;;;;;;4.43;2.50;;;;;;;24.59;66.09;93819.69;5116350;28;20205;-77
2021/09/14 10:55:11;;;;;;;4.57;2.55;;;;;;;25.13;65.67;93820.28;5116259;28;20233;-78
2021/09/14 10:57:45;;;;;;;6.05;2.10;;;;;;;24.94;60.87;93825.63;5116037;28;20559;-77
2021/09/14 11:00:15;;;;;;;9.38;2.80;;;;;;;25.50;64.63;93821.31;5115938;28;20208;-78
2021/09/14 11:02:44;;;;;;;4.15;2.30;;;;;;;25.43;62.52;93819.03;5115844;28;20266;-77
2021/09/14 11:05:11;;;;;;;6.38;2.50;;;;;;;26.26;61.98;93820.25;5116084;28;20200;-78
2021/09/14 11:07:37;;;;;;;4.60;2.45;;;;;;;26.53;61.50;93824.78;5115978;28;20255;-78
2021/09/14 11:10:10;;;;;;;5.97;2.30;;;;;;;25.93;61.28;93817.63;5115824;28;20201;-77
2021/09/14 11:12:45;;;;;;;5.53;2.45;;;;;;;25.12;62.34;93822.13;5115815;27;20208;-77
2021/09/14 11:15:15;;;;;;;7.35;2.00;;;;;;;25.31;64.63;93824.00;5115617;28;20283;-77
2021/09/14 11:17:48;;;;;;;11.50;2.38;;;;;;;25.12;63.14;93814.13;5115698;28;20193;-77
2021/09/14 11:20:18;;;;;;;4.80;2.40;;;;;;;25.35;64.23;93813.53;5115700;28;20254;-77
2021/09/14 11:22:46;;;;;;;5.85;2.75;;;;;;;25.34;65.00;93823.44;5115479;28;20659;-78
2021/09/14 11:25:14;;;;;;;5.95;2.60;;;;;;;25.51;66.94;93814.88;5115185;28;20206;-77
2021/09/14 11:27:44;;;;;;;9.85;2.22;;;;;;;25.50;65.15;93818.66;5115358;28;20197;-77
2021/09/14 11:30:16;;;;;;;3.83;2.65;;;;;;;25.10;63.73;93829.66;5115415;28;20232;-78
2021/09/14 11:32:44;;;;;;;3.60;2.53;;;;;;;24.96;68.17;93831.47;5115441;28;20202;-77
2021/09/14 11:35:17;;;;;;;4.18;2.53;;;;;;;24.90;65.84;93829.97;5115238;28;20209;-77
2021/09/14 11:37:45;;;;;;;6.72;2.50;;;;;;;25.04;67.63;93830.81;5115248;28;20198;-78
2021/09/14 11:40:27;;;;;;;6.05;2.80;;;;;;;24.95;65.08;93829.88;5114596;28;20201;-77
2021/09/14 11:43:09;;;;;;;6.03;2.40;;;;;;;24.75;68.33;93838.97;5115401;28;20197;-77
2021/09/14 11:45:41;;;;;;;3.83;2.30;;;;;;;24.75;67.45;93831.75;5115155;28;20197;-78
2021/09/14 11:48:24;;;;;;;6.55;2.80;;;;;;;24.93;66.83;93832.84;5115051;28;20197;-78
2021/09/14 11:51:03;;;;;;;6.00;2.58;;;;;;;25.12;72.60;93830.16;5114523;28;20221;-78
2021/09/14 11:53:37;;;;;;;5.93;2.90;;;;;;;25.38;67.70;93835.16;5115055;28;20200;-77
2021/09/14 11:56:11;;;;;;;6.38;3.08;;;;;;;25.83;67.21;93819.41;5114447;28;20261;-78
2021/09/14 11:58:42;;;;;;;7.00;2.90;;;;;;;26.67;65.35;93822.94;5114317;28;20199;-76
2021/09/14 12:01:09;;;;;;;5.78;2.55;;;;;;;27.13;63.36;93829.19;5114592;28;20204;-76
2021/09/14 12:03:44;;;;;;;4.53;2.40;;;;;;;27.10;58.80;93827.09;5114634;28;20686;-76
2021/09/14 12:06:11;;;;;;;3.83;2.65;;;;;;;26.80;61.18;93829.38;5114778;28;20201;-76
2021/09/14 12:08:41;;;;;;;5.72;2.60;;;;;;;26.33;62.62;93816.09;5114710;28;20197;-76
2021/09/14 12:11:18;;;;;;;4.63;3.17;;;;;;;25.85;63.73;93822.59;5114513;28;20260;-75
2021/09/14 12:13:45;;;;;;;4.40;2.63;;;;;;;26.42;63.16;93818.09;5114527;28;20211;-76
2021/09/14 12:16:25;;;;;;;5.07;2.38;;;;;;;26.78;63.32;93826.19;5114553;28;20280;-74
2021/09/14 12:18:52;;;;;;;4.50;2.72;;;;;;;25.84;61.54;93815.63;5114445;28;20283;-75
2021/09/14 12:21:22;;;;;;;4.35;2.58;;;;;;;26.21;61.07;93808.56;5114409;28;20224;-76
2021/09/14 12:23:51;;;;;;;7.18;3.30;;;;;;;26.37;61.53;93806.38;5114287;28;20865;-75
2021/09/14 12:26:22;;;;;;;4.75;2.70;;;;;;;26.73;60.96;93802.16;5114133;28;20237;-76
2021/09/14 12:28:54;;;;;;;29.25;10.82;;;;;;;26.68;63.71;93810.31;5114435;28;20208;-77
2021/09/14 12:31:24;;;;;;;15.00;6.50;;;;;;;26.12;64.61;93810.34;5114185;28;20236;-77
2021/09/14 12:33:56;;;;;;;5.72;2.50;;;;;;;25.32;63.07;93809.56;5112897;28;20205;-77
2021/09/14 12:36:26;;;;;;;8.20;2.95;;;;;;;25.21;64.32;93814.25;5113938;28;20681;-77
2021/09/14 12:38:53;;;;;;;5.47;2.72;;;;;;;25.16;66.22;93810.88;5114502;28;20200;-77